sensor_id;sensor_type;location;lat;lon;timestamp;pressure;altitude;pressure_sealevel;temperature;humidity
5883;BME280;2967;51.488;6.618;2023-02-21T00:04:28;101801.03;;;9.57;100.00
5883;BME280;2967;51.488;6.618;2023-02-21T00:09:50;101638.72;;;8.68;100.00
5883;BME280;2967;51.488;6.618;2023-02-21T00:15:12;101609.06;;;8.43;100.00
5883;BME280;2967;51.488;6.618;2023-02-21T00:20:32;101791.13;;;9.62;100.00
5883;BME280;2967;51.488;6.618;2023-02-21T00:25:53;101783.06;;;9.45;100.00
5883;BME280;2967;51.488;6.618;2023-02-21T00:31:18;101593.66;;;8.34;100.00
5883;BME280;2967;51.488;6.618;2023-02-21T00:36:38;101605.16;;;8.72;100.00
5883;BME280;2967;51.488;6.618;2023-02-21T00:41:58;101746.31;;;9.40;100.00
5883;BME280;2967;51.488;6.618;2023-02-21T00:47:20;101759.09;;;9.49;100.00
5883;BME280;2967;51.488;6.618;2023-02-21T00:52:41;101782.78;;;9.32;100.00
5883;BME280;2967;51.488;6.618;2023-02-21T00:58:02;101734.25;;;9.15;100.00
5883;BME280;2967;51.488;6.618;2023-02-21T01:03:24;101747.34;;;9.38;100.00
5883;BME280;2967;51.488;6.618;2023-02-21T01:08:48;101778.09;;;9.39;100.00
5883;BME280;2967;51.488;6.618;2023-02-21T01:14:09;101680.47;;;8.79;100.00
5883;BME280;2967;51.488;6.618;2023-02-21T01:19:30;101768.22;;;9.62;100.00
5883;BME280;2967;51.488;6.618;2023-02-21T01:24:51;101762.53;;;9.51;100.00
5883;BME280;2967;51.488;6.618;2023-02-21T01:30:12;101686.13;;;9.10;100.00
5883;BME280;2967;51.488;6.618;2023-02-21T01:35:34;101705.13;;;8.98;100.00
5883;BME280;2967;51.488;6.618;2023-02-21T01:40:55;101761.25;;;9.21;100.00
5883;BME280;2967;51.488;6.618;2023-02-21T01:46:18;101759.09;;;9.11;100.00
5883;BME280;2967;51.488;6.618;2023-02-21T01:51:41;101683.75;;;8.64;100.00
5883;BME280;2967;51.488;6.618;2023-02-21T01:57:03;101552.50;;;7.69;100.00
5883;BME280;2967;51.488;6.618;2023-02-21T02:02:28;101755.34;;;8.96;100.00
5883;BME280;2967;51.488;6.618;2023-02-21T02:07:59;101597.34;;;8.09;100.00
5883;BME280;2967;51.488;6.618;2023-02-21T02:13:32;101495.97;;;7.56;100.00
5883;BME280;2967;51.488;6.618;2023-02-21T02:19:09;101750.84;;;8.98;100.00
5883;BME280;2967;51.488;6.618;2023-02-21T02:24:35;101696.41;;;8.56;100.00
5883;BME280;2967;51.488;6.618;2023-02-21T02:29:59;101713.88;;;8.58;100.00
5883;BME280;2967;51.488;6.618;2023-02-21T02:35:08;101743.50;;;8.85;100.00
5883;BME280;2967;51.488;6.618;2023-02-21T02:40:21;101744.72;;;8.78;100.00
5883;BME280;2967;51.488;6.618;2023-02-21T02:45:33;101741.69;;;8.87;100.00
5883;BME280;2967;51.488;6.618;2023-02-21T02:50:40;101707.03;;;8.54;100.00
5883;BME280;2967;51.488;6.618;2023-02-21T02:55:47;101670.31;;;8.50;100.00
5883;BME280;2967;51.488;6.618;2023-02-21T03:06:26;101726.91;;;8.83;100.00
5883;BME280;2967;51.488;6.618;2023-02-21T03:11:31;101688.69;;;8.91;100.00
5883;BME280;2967;51.488;6.618;2023-02-21T03:16:37;101717.84;;;8.68;100.00
5883;BME280;2967;51.488;6.618;2023-02-21T03:21:48;101738.63;;;8.76;100.00
5883;BME280;2967;51.488;6.618;2023-02-21T03:26:55;101717.50;;;8.96;100.00
5883;BME280;2967;51.488;6.618;2023-02-21T03:32:29;101738.38;;;8.82;100.00
5883;BME280;2967;51.488;6.618;2023-02-21T03:37:35;101732.41;;;9.17;100.00
5883;BME280;2967;51.488;6.618;2023-02-21T03:42:39;101650.19;;;8.67;100.00
5883;BME280;2967;51.488;6.618;2023-02-21T03:47:42;101716.66;;;8.75;100.00
5883;BME280;2967;51.488;6.618;2023-02-21T03:52:46;101733.88;;;8.84;100.00
5883;BME280;2967;51.488;6.618;2023-02-21T03:57:49;101673.50;;;8.78;100.00
5883;BME280;2967;51.488;6.618;2023-02-21T04:02:52;101720.09;;;8.77;100.00
5883;BME280;2967;51.488;6.618;2023-02-21T04:08:23;101731.38;;;9.21;100.00
5883;BME280;2967;51.488;6.618;2023-02-21T04:13:28;101676.56;;;8.67;100.00
5883;BME280;2967;51.488;6.618;2023-02-21T04:18:31;101730.06;;;9.11;100.00
5883;BME280;2967;51.488;6.618;2023-02-21T04:23:40;101731.78;;;9.12;100.00
5883;BME280;2967;51.488;6.618;2023-02-21T04:28:42;101735.66;;;9.23;100.00
5883;BME280;2967;51.488;6.618;2023-02-21T04:33:45;101652.50;;;8.75;100.00
5883;BME280;2967;51.488;6.618;2023-02-21T04:38:56;101725.56;;;9.13;100.00
5883;BME280;2967;51.488;6.618;2023-02-21T04:43:59;101708.59;;;9.18;100.00
5883;BME280;2967;51.488;6.618;2023-02-21T04:49:06;101709.31;;;9.22;100.00
5883;BME280;2967;51.488;6.618;2023-02-21T04:54:10;101718.03;;;9.04;100.00
5883;BME280;2967;51.488;6.618;2023-02-21T04:59:14;101718.72;;;8.89;100.00
5883;BME280;2967;51.488;6.618;2023-02-21T05:04:17;101721.09;;;8.95;100.00
5883;BME280;2967;51.488;6.618;2023-02-21T05:09:21;101712.31;;;8.74;100.00
5883;BME280;2967;51.488;6.618;2023-02-21T05:14:28;101662.66;;;8.64;100.00
5883;BME280;2967;51.488;6.618;2023-02-21T05:19:34;101704.47;;;8.93;100.00
5883;BME280;2967;51.488;6.618;2023-02-21T05:24:41;101720.53;;;9.07;100.00
5883;BME280;2967;51.488;6.618;2023-02-21T05:29:45;101716.09;;;9.09;100.00
5883;BME280;2967;51.488;6.618;2023-02-21T05:34:48;101566.78;;;8.05;100.00
5883;BME280;2967;51.488;6.618;2023-02-21T05:39:53;101719.75;;;9.05;100.00
5883;BME280;2967;51.488;6.618;2023-02-21T05:44:56;101636.28;;;8.44;100.00
5883;BME280;2967;51.488;6.618;2023-02-21T05:49:58;101659.16;;;8.83;100.00
5883;BME280;2967;51.488;6.618;2023-02-21T05:55:03;101721.84;;;9.17;100.00
5883;BME280;2967;51.488;6.618;2023-02-21T06:00:06;101720.97;;;9.36;100.00
5883;BME280;2967;51.488;6.618;2023-02-21T06:05:15;101719.31;;;9.15;100.00
5883;BME280;2967;51.488;6.618;2023-02-21T06:10:19;101709.75;;;8.73;100.00
5883;BME280;2967;51.488;6.618;2023-02-21T06:15:22;101732.31;;;9.00;100.00
5883;BME280;2967;51.488;6.618;2023-02-21T06:20:28;101663.72;;;8.40;100.00
5883;BME280;2967;51.488;6.618;2023-02-21T06:25:32;101727.53;;;8.48;100.00
5883;BME280;2967;51.488;6.618;2023-02-21T06:30:37;101711.72;;;8.48;100.00
5883;BME280;2967;51.488;6.618;2023-02-21T06:35:39;101657.78;;;8.13;100.00
5883;BME280;2967;51.488;6.618;2023-02-21T06:40:43;101722.03;;;8.32;100.00
5883;BME280;2967;51.488;6.618;2023-02-21T06:45:46;101481.81;;;6.96;100.00
5883;BME280;2967;51.488;6.618;2023-02-21T06:50:52;101740.28;;;8.37;100.00
5883;BME280;2967;51.488;6.618;2023-02-21T06:55:56;101728.38;;;8.48;100.00
5883;BME280;2967;51.488;6.618;2023-02-21T07:00:59;101729.19;;;8.29;100.00
5883;BME280;2967;51.488;6.618;2023-02-21T07:06:02;101733.78;;;8.24;100.00
5883;BME280;2967;51.488;6.618;2023-02-21T07:11:06;101652.06;;;7.81;100.00
5883;BME280;2967;51.488;6.618;2023-02-21T07:16:10;101665.13;;;8.05;100.00
5883;BME280;2967;51.488;6.618;2023-02-21T07:21:15;101698.00;;;8.60;100.00
5883;BME280;2967;51.488;6.618;2023-02-21T07:26:20;101726.78;;;8.44;100.00
5883;BME280;2967;51.488;6.618;2023-02-21T07:31:25;101733.47;;;8.73;100.00
5883;BME280;2967;51.488;6.618;2023-02-21T07:36:28;101736.78;;;8.58;100.00
5883;BME280;2967;51.488;6.618;2023-02-21T07:41:32;101673.16;;;8.24;100.00
5883;BME280;2967;51.488;6.618;2023-02-21T07:46:35;101663.91;;;8.35;100.00
5883;BME280;2967;51.488;6.618;2023-02-21T07:51:38;101740.28;;;8.37;100.00
5883;BME280;2967;51.488;6.618;2023-02-21T07:56:43;101618.44;;;7.66;100.00
5883;BME280;2967;51.488;6.618;2023-02-21T08:01:52;101740.03;;;7.98;100.00
5883;BME280;2967;51.488;6.618;2023-02-21T08:06:58;101725.69;;;8.07;100.00
5883;BME280;2967;51.488;6.618;2023-02-21T08:12:02;101750.25;;;8.50;100.00
5883;BME280;2967;51.488;6.618;2023-02-21T08:17:06;101740.56;;;8.29;100.00
5883;BME280;2967;51.488;6.618;2023-02-21T08:22:11;101695.88;;;8.05;100.00
5883;BME280;2967;51.488;6.618;2023-02-21T08:27:16;101716.53;;;8.15;100.00
5883;BME280;2967;51.488;6.618;2023-02-21T08:32:19;101680.81;;;8.08;100.00
5883;BME280;2967;51.488;6.618;2023-02-21T08:37:22;101749.91;;;8.15;100.00
5883;BME280;2967;51.488;6.618;2023-02-21T08:42:28;101733.81;;;8.01;100.00
5883;BME280;2967;51.488;6.618;2023-02-21T08:47:33;101643.66;;;7.71;100.00
5883;BME280;2967;51.488;6.618;2023-02-21T08:52:39;101695.22;;;8.00;100.00
5883;BME280;2967;51.488;6.618;2023-02-21T08:57:43;101663.50;;;8.01;100.00
5883;BME280;2967;51.488;6.618;2023-02-21T09:02:49;101573.81;;;7.63;100.00
5883;BME280;2967;51.488;6.618;2023-02-21T09:07:53;101746.81;;;8.70;100.00
5883;BME280;2967;51.488;6.618;2023-02-21T09:13:01;101736.78;;;8.78;100.00
5883;BME280;2967;51.488;6.618;2023-02-21T09:18:04;101737.72;;;8.77;100.00
5883;BME280;2967;51.488;6.618;2023-02-21T09:23:08;101718.44;;;8.75;100.00
5883;BME280;2967;51.488;6.618;2023-02-21T09:28:12;101730.22;;;8.88;100.00
5883;BME280;2967;51.488;6.618;2023-02-21T09:33:16;101689.44;;;8.75;100.00
5883;BME280;2967;51.488;6.618;2023-02-21T09:38:19;101707.88;;;8.75;100.00
5883;BME280;2967;51.488;6.618;2023-02-21T09:43:28;101656.69;;;8.19;100.00
5883;BME280;2967;51.488;6.618;2023-02-21T09:48:37;101718.56;;;8.52;100.00
5883;BME280;2967;51.488;6.618;2023-02-21T09:53:43;101689.38;;;8.35;100.00
5883;BME280;2967;51.488;6.618;2023-02-21T09:58:49;101669.84;;;8.60;100.00
5883;BME280;2967;51.488;6.618;2023-02-21T10:03:58;101723.22;;;8.45;100.00
5883;BME280;2967;51.488;6.618;2023-02-21T10:09:16;101718.16;;;8.41;100.00
5883;BME280;2967;51.488;6.618;2023-02-21T10:14:34;101592.06;;;7.89;100.00
5883;BME280;2967;51.488;6.618;2023-02-21T10:19:49;101584.41;;;8.03;100.00
5883;BME280;2967;51.488;6.618;2023-02-21T10:24:58;101701.78;;;8.94;100.00
5883;BME280;2967;51.488;6.618;2023-02-21T10:30:09;101452.97;;;8.17;100.00
5883;BME280;2967;51.488;6.618;2023-02-21T10:35:17;101698.25;;;8.94;100.00
5883;BME280;2967;51.488;6.618;2023-02-21T10:40:29;101663.91;;;8.95;100.00
5883;BME280;2967;51.488;6.618;2023-02-21T10:45:39;101729.84;;;9.54;100.00
5883;BME280;2967;51.488;6.618;2023-02-21T10:50:50;101689.13;;;8.82;100.00
5883;BME280;2967;51.488;6.618;2023-02-21T10:56:22;101641.28;;;8.90;100.00
5883;BME280;2967;51.488;6.618;2023-02-21T11:01:36;101722.13;;;9.49;100.00
5883;BME280;2967;51.488;6.618;2023-02-21T11:06:44;101698.81;;;9.59;100.00
5883;BME280;2967;51.488;6.618;2023-02-21T11:11:58;101666.59;;;9.69;100.00
5883;BME280;2967;51.488;6.618;2023-02-21T11:17:21;101719.75;;;10.19;100.00
5883;BME280;2967;51.488;6.618;2023-02-21T11:22:35;101684.38;;;9.84;100.00
5883;BME280;2967;51.488;6.618;2023-02-21T11:27:42;101684.75;;;9.58;100.00
5883;BME280;2967;51.488;6.618;2023-02-21T11:32:50;101706.75;;;9.59;100.00
5883;BME280;2967;51.488;6.618;2023-02-21T11:37:59;101260.91;;;7.54;100.00
5883;BME280;2967;51.488;6.618;2023-02-21T11:43:21;101667.88;;;9.98;100.00
5883;BME280;2967;51.488;6.618;2023-02-21T11:48:32;101631.84;;;10.14;100.00
5883;BME280;2967;51.488;6.618;2023-02-21T11:53:48;101478.28;;;8.96;100.00
5883;BME280;2967;51.488;6.618;2023-02-21T11:58:57;101657.84;;;10.23;100.00
5883;BME280;2967;51.488;6.618;2023-02-21T12:04:17;101642.59;;;10.44;100.00
5883;BME280;2967;51.488;6.618;2023-02-21T12:09:29;101640.41;;;10.36;100.00
5883;BME280;2967;51.488;6.618;2023-02-21T12:14:45;101606.66;;;10.41;100.00
5883;BME280;2967;51.488;6.618;2023-02-21T12:20:07;101665.78;;;10.56;100.00
5883;BME280;2967;51.488;6.618;2023-02-21T12:25:21;101669.72;;;10.31;100.00
5883;BME280;2967;51.488;6.618;2023-02-21T12:30:37;101606.66;;;10.24;100.00
5883;BME280;2967;51.488;6.618;2023-02-21T12:36:04;101610.41;;;10.20;100.00
5883;BME280;2967;51.488;6.618;2023-02-21T12:41:36;101646.94;;;10.45;100.00
5883;BME280;2967;51.488;6.618;2023-02-21T12:46:49;101643.94;;;10.53;100.00
5883;BME280;2967;51.488;6.618;2023-02-21T12:52:00;101646.81;;;10.48;100.00
5883;BME280;2967;51.488;6.618;2023-02-21T12:57:08;101552.16;;;10.04;100.00
5883;BME280;2967;51.488;6.618;2023-02-21T13:02:19;101596.00;;;10.25;100.00
5883;BME280;2967;51.488;6.618;2023-02-21T13:07:32;101591.25;;;10.32;100.00
5883;BME280;2967;51.488;6.618;2023-02-21T13:12:42;101613.09;;;10.69;100.00
5883;BME280;2967;51.488;6.618;2023-02-21T13:17:55;101568.47;;;10.29;100.00
5883;BME280;2967;51.488;6.618;2023-02-21T13:28:41;101599.63;;;10.56;100.00
5883;BME280;2967;51.488;6.618;2023-02-21T13:33:49;101584.47;;;9.92;100.00
5883;BME280;2967;51.488;6.618;2023-02-21T13:39:00;101605.59;;;10.28;100.00
5883;BME280;2967;51.488;6.618;2023-02-21T13:44:06;101597.94;;;10.22;100.00
5883;BME280;2967;51.488;6.618;2023-02-21T13:55:24;101570.28;;;10.12;100.00
5883;BME280;2967;51.488;6.618;2023-02-21T14:00:47;101511.00;;;9.99;100.00
5883;BME280;2967;51.488;6.618;2023-02-21T14:11:42;101571.81;;;10.49;100.00
5883;BME280;2967;51.488;6.618;2023-02-21T14:16:48;101468.72;;;9.82;100.00
5883;BME280;2967;51.488;6.618;2023-02-21T14:21:59;101497.34;;;10.08;100.00
5883;BME280;2967;51.488;6.618;2023-02-21T14:27:33;101563.97;;;10.14;100.00
5883;BME280;2967;51.488;6.618;2023-02-21T14:32:41;101544.28;;;10.03;100.00
5883;BME280;2967;51.488;6.618;2023-02-21T14:37:52;101560.75;;;9.91;100.00
5883;BME280;2967;51.488;6.618;2023-02-21T14:43:10;101556.13;;;10.30;100.00
5883;BME280;2967;51.488;6.618;2023-02-21T14:48:28;101552.91;;;10.40;100.00
5883;BME280;2967;51.488;6.618;2023-02-21T14:54:01;101549.97;;;10.29;100.00
5883;BME280;2967;51.488;6.618;2023-02-21T14:59:24;101497.25;;;10.09;100.00
5883;BME280;2967;51.488;6.618;2023-02-21T15:04:33;101532.19;;;9.80;100.00
5883;BME280;2967;51.488;6.618;2023-02-21T15:09:40;101526.56;;;10.05;100.00
5883;BME280;2967;51.488;6.618;2023-02-21T15:14:49;101539.25;;;10.15;100.00
5883;BME280;2967;51.488;6.618;2023-02-21T15:20:02;101520.09;;;10.10;100.00
5883;BME280;2967;51.488;6.618;2023-02-21T15:25:18;101539.75;;;9.88;100.00
5883;BME280;2967;51.488;6.618;2023-02-21T15:30:36;101504.13;;;9.95;100.00
5883;BME280;2967;51.488;6.618;2023-02-21T15:35:43;101535.50;;;10.19;100.00
5883;BME280;2967;51.488;6.618;2023-02-21T15:40:47;101437.91;;;9.47;100.00
5883;BME280;2967;51.488;6.618;2023-02-21T15:45:58;101525.81;;;10.20;100.00
5883;BME280;2967;51.488;6.618;2023-02-21T15:51:05;101250.56;;;8.25;100.00
5883;BME280;2967;51.488;6.618;2023-02-21T15:56:21;101499.94;;;9.74;100.00
5883;BME280;2967;51.488;6.618;2023-02-21T16:01:26;101519.41;;;10.07;100.00
5883;BME280;2967;51.488;6.618;2023-02-21T16:06:30;101470.03;;;9.56;100.00
5883;BME280;2967;51.488;6.618;2023-02-21T16:11:39;101409.13;;;9.42;100.00
5883;BME280;2967;51.488;6.618;2023-02-21T16:16:44;101491.25;;;9.72;100.00
5883;BME280;2967;51.488;6.618;2023-02-21T16:21:48;101522.75;;;9.93;100.00
5883;BME280;2967;51.488;6.618;2023-02-21T16:27:01;101522.50;;;9.98;100.00
5883;BME280;2967;51.488;6.618;2023-02-21T16:32:14;101451.31;;;9.61;100.00
5883;BME280;2967;51.488;6.618;2023-02-21T16:37:21;101412.47;;;9.29;100.00
5883;BME280;2967;51.488;6.618;2023-02-21T16:42:24;101497.78;;;9.82;100.00
5883;BME280;2967;51.488;6.618;2023-02-21T16:47:28;101433.88;;;9.57;100.00
5883;BME280;2967;51.488;6.618;2023-02-21T16:52:31;101512.84;;;9.97;100.00
5883;BME280;2967;51.488;6.618;2023-02-21T16:57:34;101519.06;;;9.96;100.00
5883;BME280;2967;51.488;6.618;2023-02-21T17:02:38;101511.13;;;9.96;100.00
5883;BME280;2967;51.488;6.618;2023-02-21T17:07:41;101466.00;;;9.66;100.00
5883;BME280;2967;51.488;6.618;2023-02-21T17:12:44;101438.03;;;9.62;100.00
5883;BME280;2967;51.488;6.618;2023-02-21T17:17:49;101507.63;;;9.61;100.00
5883;BME280;2967;51.488;6.618;2023-02-21T17:22:55;101440.25;;;9.36;100.00
5883;BME280;2967;51.488;6.618;2023-02-21T17:27:59;101289.88;;;8.48;100.00
5883;BME280;2967;51.488;6.618;2023-02-21T17:33:04;101298.63;;;8.48;100.00
5883;BME280;2967;51.488;6.618;2023-02-21T17:38:10;101187.38;;;7.88;100.00
5883;BME280;2967;51.488;6.618;2023-02-21T17:43:14;101469.31;;;9.53;100.00
5883;BME280;2967;51.488;6.618;2023-02-21T17:48:19;101523.41;;;9.97;100.00
5883;BME280;2967;51.488;6.618;2023-02-21T17:53:27;101535.72;;;9.98;100.00
5883;BME280;2967;51.488;6.618;2023-02-21T17:58:32;101527.53;;;9.85;100.00
5883;BME280;2967;51.488;6.618;2023-02-21T18:03:41;101235.25;;;8.14;100.00
5883;BME280;2967;51.488;6.618;2023-02-21T18:08:45;101521.25;;;9.88;100.00
5883;BME280;2967;51.488;6.618;2023-02-21T18:13:48;101524.75;;;9.88;100.00
5883;BME280;2967;51.488;6.618;2023-02-21T18:18:58;101525.63;;;9.89;100.00
5883;BME280;2967;51.488;6.618;2023-02-21T18:24:11;101506.41;;;9.85;100.00
5883;BME280;2967;51.488;6.618;2023-02-21T18:29:15;101488.66;;;9.70;100.00
5883;BME280;2967;51.488;6.618;2023-02-21T18:34:26;101295.53;;;8.57;100.00
5883;BME280;2967;51.488;6.618;2023-02-21T18:39:36;101441.66;;;9.43;100.00
5883;BME280;2967;51.488;6.618;2023-02-21T18:45:02;101510.06;;;9.83;100.00
5883;BME280;2967;51.488;6.618;2023-02-21T18:57:30;101380.88;;;8.92;100.00
5883;BME280;2967;51.488;6.618;2023-02-21T19:10:48;101487.59;;;9.91;100.00
5883;BME280;2967;51.488;6.618;2023-02-21T19:16:28;101496.38;;;9.75;100.00
5883;BME280;2967;51.488;6.618;2023-02-21T19:21:32;101485.34;;;9.84;100.00
5883;BME280;2967;51.488;6.618;2023-02-21T19:26:36;101506.63;;;9.81;100.00
5883;BME280;2967;51.488;6.618;2023-02-21T19:31:43;101175.34;;;7.82;100.00
5883;BME280;2967;51.488;6.618;2023-02-21T19:36:59;101314.16;;;8.71;100.00
5883;BME280;2967;51.488;6.618;2023-02-21T19:42:08;101280.72;;;8.55;100.00
5883;BME280;2967;51.488;6.618;2023-02-21T19:47:12;101277.16;;;8.56;100.00
5883;BME280;2967;51.488;6.618;2023-02-21T19:52:20;101346.34;;;8.96;100.00
5883;BME280;2967;51.488;6.618;2023-02-21T19:57:23;101242.53;;;8.28;100.00
5883;BME280;2967;51.488;6.618;2023-02-21T20:02:30;101275.53;;;8.70;100.00
5883;BME280;2967;51.488;6.618;2023-02-21T20:07:36;101471.19;;;9.85;100.00
5883;BME280;2967;51.488;6.618;2023-02-21T20:12:42;101416.34;;;9.56;100.00
5883;BME280;2967;51.488;6.618;2023-02-21T20:17:47;101458.69;;;9.71;100.00
5883;BME280;2967;51.488;6.618;2023-02-21T20:23:00;101192.75;;;8.22;100.00
5883;BME280;2967;51.488;6.618;2023-02-21T20:28:17;101295.13;;;8.83;100.00
5883;BME280;2967;51.488;6.618;2023-02-21T20:33:35;101318.81;;;9.02;100.00
5883;BME280;2967;51.488;6.618;2023-02-21T20:38:39;101046.75;;;7.38;100.00
5883;BME280;2967;51.488;6.618;2023-02-21T20:43:45;101082.25;;;7.65;100.00
5883;BME280;2967;51.488;6.618;2023-02-21T20:48:51;101353.13;;;9.19;100.00
5883;BME280;2967;51.488;6.618;2023-02-21T20:54:02;101309.94;;;9.03;100.00
5883;BME280;2967;51.488;6.618;2023-02-21T20:59:07;101337.75;;;9.27;100.00
5883;BME280;2967;51.488;6.618;2023-02-21T21:04:20;101261.84;;;8.81;100.00
5883;BME280;2967;51.488;6.618;2023-02-21T21:09:27;101167.75;;;8.12;100.00
5883;BME280;2967;51.488;6.618;2023-02-21T21:14:37;100894.63;;;6.57;100.00
5883;BME280;2967;51.488;6.618;2023-02-21T21:19:45;101244.22;;;8.64;100.00
5883;BME280;2967;51.488;6.618;2023-02-21T21:24:52;101438.41;;;9.72;100.00
5883;BME280;2967;51.488;6.618;2023-02-21T21:30:16;101271.84;;;8.91;100.00
5883;BME280;2967;51.488;6.618;2023-02-21T21:35:25;101362.81;;;9.18;100.00
5883;BME280;2967;51.488;6.618;2023-02-21T21:40:30;101431.59;;;9.68;100.00
5883;BME280;2967;51.488;6.618;2023-02-21T21:45:36;100963.53;;;7.00;100.00
5883;BME280;2967;51.488;6.618;2023-02-21T21:50:52;101242.81;;;8.57;100.00
5883;BME280;2967;51.488;6.618;2023-02-21T21:55:58;101418.63;;;9.63;100.00
5883;BME280;2967;51.488;6.618;2023-02-21T22:01:08;101406.88;;;9.69;100.00
5883;BME280;2967;51.488;6.618;2023-02-21T22:06:19;101183.00;;;8.41;100.00
5883;BME280;2967;51.488;6.618;2023-02-21T22:11:22;101266.81;;;8.87;100.00
5883;BME280;2967;51.488;6.618;2023-02-21T22:16:33;101341.16;;;9.46;100.00
5883;BME280;2967;51.488;6.618;2023-02-21T22:21:46;101272.25;;;9.18;100.00
5883;BME280;2967;51.488;6.618;2023-02-21T22:26:53;101317.97;;;9.35;100.00
5883;BME280;2967;51.488;6.618;2023-02-21T22:32:05;101134.72;;;8.23;100.00
5883;BME280;2967;51.488;6.618;2023-02-21T22:37:14;101354.34;;;9.63;100.00
5883;BME280;2967;51.488;6.618;2023-02-21T22:42:18;101123.00;;;8.29;100.00
5883;BME280;2967;51.488;6.618;2023-02-21T22:47:24;101326.88;;;9.50;100.00
5883;BME280;2967;51.488;6.618;2023-02-21T22:52:29;101323.53;;;9.46;100.00
5883;BME280;2967;51.488;6.618;2023-02-21T22:57:33;101340.78;;;9.53;100.00
5883;BME280;2967;51.488;6.618;2023-02-21T23:02:36;101293.66;;;9.29;100.00
5883;BME280;2967;51.488;6.618;2023-02-21T23:07:52;101260.59;;;9.05;100.00
5883;BME280;2967;51.488;6.618;2023-02-21T23:13:02;101328.19;;;9.41;100.00
5883;BME280;2967;51.488;6.618;2023-02-21T23:18:05;101277.59;;;9.16;100.00
5883;BME280;2967;51.488;6.618;2023-02-21T23:23:17;100954.41;;;7.26;100.00
5883;BME280;2967;51.488;6.618;2023-02-21T23:28:21;101299.31;;;9.38;100.00
5883;BME280;2967;51.488;6.618;2023-02-21T23:33:26;101077.56;;;8.07;100.00
5883;BME280;2967;51.488;6.618;2023-02-21T23:38:31;100817.06;;;6.67;100.00
5883;BME280;2967;51.488;6.618;2023-02-21T23:43:39;101175.31;;;8.70;100.00
5883;BME280;2967;51.488;6.618;2023-02-21T23:48:42;101138.91;;;8.44;100.00
5883;BME280;2967;51.488;6.618;2023-02-21T23:53:50;101253.44;;;9.07;100.00
5883;BME280;2967;51.488;6.618;2023-02-21T23:58:53;101283.16;;;9.27;100.00
